Time;durP1;ratioP1;P1;durP2;ratioP2;P2;SDS_P1;SDS_P2;PMS_P1;PMS_P2;Temp;Humidity;BMP_temperature;BMP_pressure;BME280_temperature;BME280_humidity;BME280_pressure;Samples;Min_cycle;Max_cycle;Signal;HPM_P1;HPM_P2
2023/02/28 00:01:26;;;;;;;6.10;3.75;;;10.60;78.00;;;;;;4940578;29;20060;-79
2023/02/28 00:03:52;;;;;;;6.38;3.83;;;10.60;78.00;;;;;;4957268;28;20091;-75
2023/02/28 00:06:18;;;;;;;6.20;3.63;;;10.60;78.00;;;;;;4958558;29;20486;-79
2023/02/28 00:08:43;;;;;;;6.88;3.80;;;10.60;78.00;;;;;;4959526;29;20115;-79
2023/02/28 00:11:11;;;;;;;6.32;4.13;;;10.60;78.00;;;;;;4958383;29;20431;-79
2023/02/28 00:13:42;;;;;;;7.28;3.70;;;10.60;78.10;;;;;;4942343;29;20023;-79
2023/02/28 00:16:11;;;;;;;6.40;3.75;;;10.60;78.00;;;;;;4957596;29;20031;-78
2023/02/28 00:18:37;;;;;;;6.35;3.65;;;10.60;78.00;;;;;;4961140;29;20059;-79
2023/02/28 00:21:03;;;;;;;7.53;3.88;;;10.60;78.00;;;;;;4957256;29;20027;-79
2023/02/28 00:23:28;;;;;;;7.22;3.70;;;10.60;78.10;;;;;;4958750;29;20112;-79
2023/02/28 00:25:54;;;;;;;6.72;3.90;;;10.60;78.20;;;;;;4963069;29;20071;-79
2023/02/28 00:28:20;;;;;;;6.38;4.00;;;10.60;78.20;;;;;;4939063;29;20027;-79
2023/02/28 00:30:45;;;;;;;6.95;4.00;;;10.60;78.00;;;;;;4956329;29;20027;-78
2023/02/28 00:33:11;;;;;;;6.10;3.65;;;10.60;78.00;;;;;;4956315;29;20027;-77
2023/02/28 00:35:37;;;;;;;6.78;3.85;;;10.60;78.10;;;;;;4954468;29;20058;-79
2023/02/28 00:38:02;;;;;;;6.78;3.92;;;10.60;77.90;;;;;;4941324;29;20034;-78
2023/02/28 00:40:29;;;;;;;7.78;4.18;;;10.60;78.00;;;;;;4960331;29;20074;-79
2023/02/28 00:42:54;;;;;;;7.18;3.72;;;10.60;78.10;;;;;;4958552;29;20532;-79
2023/02/28 00:45:20;;;;;;;6.90;4.03;;;10.60;78.10;;;;;;4955377;29;20027;-77
2023/02/28 00:47:49;;;;;;;6.63;3.70;;;10.60;78.00;;;;;;4940381;29;20030;-79
2023/02/28 00:50:18;;;;;;;6.30;3.78;;;10.60;78.00;;;;;;4946416;29;20031;-77
2023/02/28 00:52:43;;;;;;;6.25;3.65;;;10.60;78.00;;;;;;4963198;29;20031;-79
2023/02/28 00:55:09;;;;;;;7.57;4.07;;;10.60;78.10;;;;;;4958725;29;20031;-78
2023/02/28 00:57:34;;;;;;;6.72;4.15;;;10.50;78.00;;;;;;4955570;29;20067;-78
2023/02/28 01:00:00;;;;;;;7.03;3.88;;;10.50;78.00;;;;;;4958186;29;20118;-78
2023/02/28 01:02:25;;;;;;;6.78;3.58;;;10.60;78.10;;;;;;4958794;29;20034;-79
2023/02/28 01:04:51;;;;;;;6.18;3.72;;;10.50;78.00;;;;;;4973878;28;20030;-78
2023/02/28 01:07:16;;;;;;;6.88;3.90;;;10.50;78.00;;;;;;4978057;28;20034;-79
2023/02/28 01:09:42;;;;;;;6.70;4.22;;;10.60;78.10;;;;;;4978062;28;20031;-79
2023/02/28 01:12:08;;;;;;;7.35;4.10;;;10.60;78.10;;;;;;4959951;28;20436;-78
2023/02/28 01:14:34;;;;;;;6.53;3.92;;;10.60;78.00;;;;;;4960311;28;20022;-78
2023/02/28 01:17:00;;;;;;;6.72;3.70;;;10.50;78.00;;;;;;4960387;28;20119;-78
2023/02/28 01:19:25;;;;;;;7.07;4.20;;;10.50;78.00;;;;;;4977657;28;20066;-78
2023/02/28 01:21:51;;;;;;;6.55;4.00;;;10.50;78.00;;;;;;4960174;28;20031;-78
2023/02/28 01:24:16;;;;;;;6.70;3.80;;;10.50;78.00;;;;;;4977367;28;20093;-78
2023/02/28 01:26:42;;;;;;;6.28;3.80;;;10.60;78.10;;;;;;4960190;28;20027;-78
2023/02/28 01:29:07;;;;;;;7.20;4.07;;;10.50;78.00;;;;;;4976986;28;20548;-78
2023/02/28 01:31:33;;;;;;;6.80;3.88;;;10.60;78.20;;;;;;4976500;28;20033;-79
2023/02/28 01:33:58;;;;;;;6.45;3.88;;;10.50;78.00;;;;;;4975838;28;20509;-77
2023/02/28 01:36:25;;;;;;;6.78;3.90;;;10.50;78.00;;;;;;4977572;28;20031;-79
2023/02/28 01:38:51;;;;;;;6.82;4.28;;;10.50;78.00;;;;;;4962362;28;20042;-78
2023/02/28 01:41:22;;;;;;;6.90;3.75;;;10.50;78.00;;;;;;4961634;28;20169;-79
2023/02/28 01:43:48;;;;;;;6.85;3.95;;;10.50;78.00;;;;;;4961000;28;20033;-79
2023/02/28 01:46:14;;;;;;;6.55;3.67;;;10.50;78.00;;;;;;4978876;28;20018;-79
2023/02/28 01:48:50;;;;;;;7.10;4.30;;;10.50;78.00;;;;;;4978259;28;20023;-79
2023/02/28 01:51:22;;;;;;;6.10;3.85;;;10.50;78.00;;;;;;4977883;28;20039;-79
2023/02/28 01:53:52;;;;;;;6.25;3.70;;;10.50;78.10;;;;;;4977842;28;20050;-78
2023/02/28 01:56:23;;;;;;;7.05;3.83;;;10.50;78.00;;;;;;4959615;28;20054;-78
2023/02/28 01:58:50;;;;;;;7.53;3.90;;;10.50;78.00;;;;;;4959722;28;20086;-79
2023/02/28 02:01:21;;;;;;;6.20;3.80;;;10.50;78.00;;;;;;4976429;28;20019;-78
2023/02/28 02:03:59;;;;;;;6.38;3.97;;;10.50;77.90;;;;;;4959935;28;20050;-78
2023/02/28 02:06:36;;;;;;;6.50;4.00;;;10.50;78.10;;;;;;4959323;28;20393;-78
2023/02/28 02:09:02;;;;;;;10.40;4.28;;;10.50;78.00;;;;;;4959367;28;20050;-78
2023/02/28 02:11:29;;;;;;;6.05;3.80;;;10.50;78.00;;;;;;4959189;28;20501;-78
2023/02/28 02:14:21;;;;;;;6.90;4.22;;;10.50;78.00;;;;;;4959255;28;20030;-78
2023/02/28 02:16:52;;;;;;;6.65;3.85;;;10.50;78.00;;;;;;4977207;28;20031;-78
2023/02/28 02:20:05;;;;;;;6.50;4.10;;;10.50;78.10;;;;;;4976076;28;20027;-78
2023/02/28 02:22:43;;;;;;;7.20;4.13;;;10.50;78.10;;;;;;4971695;28;20274;-78
2023/02/28 02:25:26;;;;;;;7.18;4.30;;;10.50;78.00;;;;;;4961295;28;20066;-79
2023/02/28 02:28:19;;;;;;;6.70;3.90;;;10.50;78.00;;;;;;4961188;28;20027;-78
2023/02/28 02:31:22;;;;;;;6.13;3.85;;;10.50;78.00;;;;;;4980041;28;20030;-78
2023/02/28 02:34:07;;;;;;;6.68;4.07;;;10.50;78.10;;;;;;4979376;28;20030;-78
2023/02/28 02:36:53;;;;;;;6.05;3.72;;;10.50;77.90;;;;;;4980297;28;20034;-78
2023/02/28 02:39:36;;;;;;;6.85;4.05;;;10.50;77.90;;;;;;4978993;28;20529;-78
2023/02/28 02:42:11;;;;;;;6.35;3.92;;;10.50;78.00;;;;;;4978977;28;20220;-78
2023/02/28 02:44:45;;;;;;;6.63;4.00;;;10.50;78.00;;;;;;4979243;28;20031;-78
2023/02/28 02:47:17;;;;;;;6.63;3.83;;;10.50;77.80;;;;;;4984431;28;20030;-79
2023/02/28 02:49:48;;;;;;;5.90;3.50;;;10.50;77.90;;;;;;4966285;28;20049;-79
2023/02/28 02:52:16;;;;;;;7.05;3.90;;;10.50;78.00;;;;;;4982785;28;20489;-78
2023/02/28 02:54:45;;;;;;;6.47;3.97;;;10.50;78.00;;;;;;4978323;28;20039;-79
2023/02/28 02:57:17;;;;;;;6.43;3.90;;;10.50;78.00;;;;;;4978327;28;20082;-78
2023/02/28 02:59:43;;;;;;;6.45;4.00;;;10.50;77.90;;;;;;4981580;28;20027;-79
2023/02/28 03:02:13;;;;;;;6.13;3.80;;;10.40;78.00;;;;;;4984423;28;20125;-79
2023/02/28 03:04:45;;;;;;;6.22;3.60;;;10.50;77.90;;;;;;4985379;28;20058;-79
2023/02/28 03:07:10;;;;;;;6.25;3.47;;;10.50;78.00;;;;;;4964786;28;20082;-79
2023/02/28 03:09:36;;;;;;;6.55;3.70;;;10.50;77.90;;;;;;4980260;28;20039;-78
2023/02/28 03:12:03;;;;;;;6.65;3.85;;;10.50;78.00;;;;;;4960174;28;20086;-78
2023/02/28 03:14:56;;;;;;;5.95;3.67;;;10.50;78.00;;;;;;4978713;28;20081;-78
2023/02/28 03:17:38;;;;;;;6.45;3.97;;;10.40;77.80;;;;;;4961750;28;20118;-78
2023/02/28 03:20:07;;;;;;;6.88;4.10;;;10.40;77.90;;;;;;4979052;28;20073;-78
2023/02/28 03:22:36;;;;;;;6.25;3.60;;;10.50;78.00;;;;;;4962288;28;20082;-77
2023/02/28 03:25:31;;;;;;;6.72;3.92;;;10.50;77.90;;;;;;4963477;28;20023;-79
2023/02/28 03:28:12;;;;;;;6.40;3.85;;;10.40;77.90;;;;;;4959724;28;20490;-78
2023/02/28 03:31:09;;;;;;;7.55;3.92;;;10.40;77.90;;;;;;4976795;28;20062;-78
2023/02/28 03:33:40;;;;;;;6.50;3.88;;;10.50;78.00;;;;;;4965166;28;20035;-78
2023/02/28 03:36:18;;;;;;;6.65;4.05;;;10.50;77.90;;;;;;4976881;28;20396;-78
2023/02/28 03:39:02;;;;;;;6.57;3.67;;;10.40;77.80;;;;;;4978992;28;20038;-79
2023/02/28 03:41:54;;;;;;;6.70;3.80;;;10.50;77.90;;;;;;4962516;28;20493;-79
2023/02/28 03:44:56;;;;;;;6.57;3.95;;;10.40;77.80;;;;;;4963177;28;20030;-80
2023/02/28 03:47:28;;;;;;;7.43;4.10;;;10.40;78.00;;;;;;4966738;28;20041;-79
2023/02/28 03:50:18;;;;;;;6.05;3.70;;;10.50;78.00;;;;;;4961731;28;20098;-78
2023/02/28 03:52:49;;;;;;;6.28;3.90;;;10.40;77.90;;;;;;4965628;28;20037;-79
2023/02/28 03:55:16;;;;;;;6.10;3.70;;;10.40;77.80;;;;;;4959948;28;20029;-77
2023/02/28 03:57:59;;;;;;;6.57;3.90;;;10.40;78.00;;;;;;4959126;28;20530;-78
2023/02/28 04:00:38;;;;;;;6.82;3.80;;;10.40;77.90;;;;;;4961724;28;20027;-78
2023/02/28 04:03:04;;;;;;;6.75;3.75;;;10.40;77.80;;;;;;4958139;28;20093;-78
2023/02/28 04:05:31;;;;;;;6.97;3.80;;;10.40;77.80;;;;;;4975669;28;20722;-78
2023/02/28 04:08:07;;;;;;;6.00;3.80;;;10.40;77.90;;;;;;4958165;28;20034;-78
2023/02/28 04:10:33;;;;;;;5.90;3.58;;;10.40;77.80;;;;;;4958410;28;20173;-78
2023/02/28 04:12:58;;;;;;;6.00;3.78;;;10.40;77.90;;;;;;4975377;28;20498;-78
2023/02/28 04:15:24;;;;;;;7.55;4.18;;;10.40;77.80;;;;;;4957931;28;20031;-77
2023/02/28 04:17:50;;;;;;;6.88;3.80;;;10.40;78.00;;;;;;4977553;28;20506;-78
2023/02/28 04:20:16;;;;;;;6.13;3.78;;;10.40;77.80;;;;;;4977826;28;20400;-78
2023/02/28 04:22:41;;;;;;;6.00;3.63;;;10.40;77.90;;;;;;4979574;28;20651;-78
2023/02/28 04:25:07;;;;;;;5.85;3.75;;;10.40;78.00;;;;;;4961648;28;20035;-79
2023/02/28 04:27:33;;;;;;;6.78;4.00;;;10.40;77.80;;;;;;4970875;28;20027;-78
2023/02/28 04:29:58;;;;;;;6.57;3.95;;;10.40;77.80;;;;;;4956201;28;20026;-78
2023/02/28 04:32:24;;;;;;;6.32;3.90;;;10.40;78.00;;;;;;4973642;28;20035;-79
2023/02/28 04:34:49;;;;;;;6.30;3.85;;;10.40;77.90;;;;;;4962866;28;20123;-78
2023/02/28 04:37:15;;;;;;;6.68;3.90;;;10.40;77.90;;;;;;4960610;28;20106;-79
2023/02/28 04:39:42;;;;;;;7.05;3.92;;;10.40;77.90;;;;;;4937527;29;20038;-78
2023/02/28 04:42:07;;;;;;;6.13;3.70;;;10.40;78.00;;;;;;4963154;28;20081;-79
2023/02/28 04:44:33;;;;;;;5.93;3.47;;;10.40;77.80;;;;;;4974511;28;20023;-78
2023/02/28 04:46:58;;;;;;;6.80;3.83;;;10.40;77.80;;;;;;4956644;28;20026;-79
2023/02/28 04:49:24;;;;;;;5.80;3.70;;;10.40;77.80;;;;;;4972753;28;20042;-79
2023/02/28 04:51:49;;;;;;;7.13;4.05;;;10.40;77.80;;;;;;4955392;28;20027;-80
2023/02/28 04:54:15;;;;;;;6.18;3.65;;;10.40;77.80;;;;;;4957050;28;20026;-79
2023/02/28 04:56:41;;;;;;;6.20;3.83;;;10.40;77.80;;;;;;4956575;28;20030;-79
2023/02/28 04:59:07;;;;;;;6.20;3.85;;;10.40;77.60;;;;;;4955052;28;20058;-77
2023/02/28 05:01:34;;;;;;;6.25;3.95;;;10.30;76.90;;;;;;4953766;28;20118;-78
2023/02/28 05:04:02;;;;;;;6.60;3.95;;;10.40;77.40;;;;;;4971438;28;20026;-79
2023/02/28 05:06:29;;;;;;;6.78;4.18;;;10.30;76.30;;;;;;4954825;28;20027;-80
2023/02/28 05:08:56;;;;;;;6.47;3.83;;;10.30;76.50;;;;;;4971814;28;20027;-78
2023/02/28 05:11:25;;;;;;;7.22;4.10;;;10.30;77.00;;;;;;4956496;28;20043;-80
2023/02/28 05:13:51;;;;;;;6.82;3.88;;;10.30;76.80;;;;;;4956860;28;20022;-79
2023/02/28 05:16:17;;;;;;;6.68;4.18;;;10.30;77.10;;;;;;4956142;28;20031;-81
2023/02/28 05:18:43;;;;;;;6.05;3.80;;;10.40;77.10;;;;;;4973641;28;20035;-80
2023/02/28 05:21:31;;;;;;;6.57;4.22;;;10.40;77.20;;;;;;4956215;28;20030;-79
2023/02/28 05:24:00;;;;;;;7.10;3.95;;;10.30;77.10;;;;;;4955810;28;20034;-80
2023/02/28 05:26:27;;;;;;;6.75;3.95;;;10.30;77.20;;;;;;4972439;28;20489;-79
2023/02/28 05:28:53;;;;;;;6.72;4.30;;;10.40;77.30;;;;;;4972528;28;20027;-79
2023/02/28 05:31:18;;;;;;;6.60;4.00;;;10.40;77.30;;;;;;4972465;28;20030;-79
2023/02/28 05:33:44;;;;;;;6.25;3.70;;;10.30;77.30;;;;;;4945318;28;20084;-78
2023/02/28 05:36:10;;;;;;;6.63;3.97;;;10.30;77.30;;;;;;4960090;28;20277;-79
2023/02/28 05:38:35;;;;;;;6.78;4.18;;;10.30;77.30;;;;;;4970779;28;20149;-79
2023/02/28 05:41:06;;;;;;;7.88;4.20;;;10.20;77.20;;;;;;4954058;28;20477;-79
2023/02/28 05:43:31;;;;;;;6.70;3.75;;;10.30;77.30;;;;;;4953936;28;20046;-79
2023/02/28 05:45:56;;;;;;;6.43;3.88;;;10.30;77.30;;;;;;4950798;29;20024;-79
2023/02/28 05:48:22;;;;;;;6.55;3.80;;;10.30;77.40;;;;;;4935572;29;20019;-79
2023/02/28 05:50:47;;;;;;;6.55;4.20;;;10.30;77.40;;;;;;4952517;29;20058;-82
2023/02/28 05:53:13;;;;;;;7.00;4.07;;;10.30;77.30;;;;;;4955037;29;20034;-81
2023/02/28 05:55:39;;;;;;;6.80;4.20;;;10.30;77.40;;;;;;4935909;29;20063;-80
2023/02/28 05:58:04;;;;;;;6.65;4.28;;;10.30;77.40;;;;;;4937209;29;20560;-80
2023/02/28 06:00:30;;;;;;;7.07;4.53;;;10.30;77.30;;;;;;4935863;29;20027;-80
2023/02/28 06:02:57;;;;;;;5.93;3.58;;;10.30;77.40;;;;;;4955622;28;20498;-80
2023/02/28 06:05:23;;;;;;;7.20;3.92;;;10.30;77.90;;;;;;4939024;29;20028;-79
2023/02/28 06:07:49;;;;;;;7.40;3.97;;;10.30;77.30;;;;;;4957215;29;20390;-80
2023/02/28 06:10:14;;;;;;;6.57;4.00;;;10.30;77.30;;;;;;4957991;29;20038;-80
2023/02/28 06:12:41;;;;;;;6.28;3.92;;;10.30;77.30;;;;;;4939409;29;20066;-80
2023/02/28 06:15:08;;;;;;;7.00;4.20;;;10.30;77.30;;;;;;4955424;29;20038;-78
2023/02/28 06:17:33;;;;;;;6.63;4.10;;;10.30;77.40;;;;;;4957086;29;20062;-80
2023/02/28 06:19:59;;;;;;;6.70;3.95;;;10.30;77.30;;;;;;4956113;29;20062;-78
2023/02/28 06:22:24;;;;;;;5.72;3.63;;;10.30;77.30;;;;;;4940055;29;20031;-78
2023/02/28 06:24:50;;;;;;;9.38;4.10;;;10.30;77.60;;;;;;4939823;29;20023;-79
2023/02/28 06:27:15;;;;;;;10.77;4.68;;;10.20;76.10;;;;;;4958916;29;20027;-80
2023/02/28 06:29:41;;;;;;;8.15;4.63;;;10.20;74.60;;;;;;4961320;29;20042;-80
2023/02/28 06:32:06;;;;;;;9.02;5.10;;;10.30;74.20;;;;;;4944718;29;20031;-81
2023/02/28 06:34:33;;;;;;;7.03;4.13;;;10.30;74.30;;;;;;4972361;28;20042;-81
2023/02/28 06:37:01;;;;;;;6.60;4.18;;;10.30;75.40;;;;;;4959818;28;20515;-81
2023/02/28 06:39:28;;;;;;;6.82;4.28;;;10.30;75.70;;;;;;4957968;28;20548;-80
2023/02/28 06:41:53;;;;;;;6.65;4.00;;;10.30;76.20;;;;;;4958200;28;20093;-80
2023/02/28 06:44:19;;;;;;;6.43;3.83;;;10.40;76.40;;;;;;4957248;28;20477;-80
2023/02/28 06:46:45;;;;;;;6.10;3.90;;;10.40;76.60;;;;;;4976339;28;20045;-80
2023/02/28 06:49:11;;;;;;;7.13;4.20;;;10.40;76.80;;;;;;4959128;28;20027;-81
2023/02/28 06:51:41;;;;;;;7.03;4.07;;;10.40;76.80;;;;;;5006964;23;20050;-83
2023/02/28 06:54:09;;;;;;;6.35;3.90;;;10.50;76.90;;;;;;4996449;28;20027;-85
2023/02/28 06:56:35;;;;;;;6.45;4.07;;;10.50;76.90;;;;;;4995366;28;20424;-84
2023/02/28 06:59:00;;;;;;;7.45;4.25;;;10.50;76.80;;;;;;4995588;28;20018;-81
2023/02/28 07:01:27;;;;;;;6.75;4.10;;;10.60;76.90;;;;;;4996796;28;20033;-83
2023/02/28 07:03:53;;;;;;;6.97;3.80;;;10.60;76.90;;;;;;4998501;28;20087;-82
2023/02/28 07:06:22;;;;;;;6.45;4.15;;;10.60;76.80;;;;;;4998160;28;20117;-82
2023/02/28 07:08:48;;;;;;;6.65;4.35;;;10.60;76.70;;;;;;4998570;28;20104;-83
2023/02/28 07:11:14;;;;;;;6.82;4.10;;;10.70;76.80;;;;;;5015758;28;20034;-82
2023/02/28 07:13:39;;;;;;;7.72;4.25;;;10.70;76.70;;;;;;4997508;28;20032;-82
2023/02/28 07:16:08;;;;;;;6.43;3.75;;;10.70;76.70;;;;;;4997963;28;20033;-82
2023/02/28 07:18:35;;;;;;;6.30;4.00;;;10.80;76.60;;;;;;4998149;28;20033;-82
2023/02/28 07:21:05;;;;;;;5.28;3.40;;;10.80;76.40;;;;;;4997546;28;20036;-82
2023/02/28 07:23:31;;;;;;;6.53;3.95;;;10.80;76.40;;;;;;4998158;28;20025;-82
2023/02/28 07:25:56;;;;;;;6.60;3.65;;;10.80;76.30;;;;;;5015219;28;20026;-83
2023/02/28 07:28:22;;;;;;;6.63;3.90;;;10.90;76.30;;;;;;5015175;28;20045;-82
2023/02/28 07:30:48;;;;;;;6.47;3.83;;;10.90;76.20;;;;;;4997546;28;20061;-82
2023/02/28 07:33:13;;;;;;;6.45;3.53;;;11.00;76.20;;;;;;4997966;28;20033;-82
2023/02/28 07:35:39;;;;;;;6.60;4.18;;;11.00;76.20;;;;;;4998368;28;20125;-81
2023/02/28 07:38:04;;;;;;;5.45;3.17;;;11.00;76.10;;;;;;4997570;28;20030;-81
2023/02/28 07:40:30;;;;;;;5.13;3.17;;;11.10;76.10;;;;;;4997581;28;20084;-82
2023/02/28 07:42:55;;;;;;;6.57;3.53;;;11.10;76.10;;;;;;4997435;28;20022;-82
2023/02/28 07:45:21;;;;;;;5.18;3.10;;;11.00;76.00;;;;;;4996742;28;20030;-80
2023/02/28 07:47:46;;;;;;;5.82;3.55;;;11.10;76.10;;;;;;4996178;28;20117;-82
2023/02/28 07:50:14;;;;;;;6.70;3.50;;;11.20;76.10;;;;;;4996709;28;20050;-82
2023/02/28 07:52:40;;;;;;;6.40;3.63;;;11.20;76.10;;;;;;4996578;28;20079;-83
2023/02/28 07:55:07;;;;;;;6.07;3.60;;;11.20;76.00;;;;;;5013588;28;20086;-82
2023/02/28 07:57:33;;;;;;;5.72;3.40;;;11.30;76.10;;;;;;4996591;28;20030;-82
2023/02/28 07:59:58;;;;;;;5.68;3.47;;;11.30;76.10;;;;;;4997011;28;20036;-82
2023/02/28 08:02:24;;;;;;;5.35;3.33;;;11.30;76.00;;;;;;4997410;28;20025;-82
2023/02/28 08:04:49;;;;;;;5.88;3.70;;;11.30;76.00;;;;;;5014609;28;20088;-82
2023/02/28 08:07:16;;;;;;;5.93;3.72;;;11.40;76.00;;;;;;5014970;28;20026;-82
2023/02/28 08:09:42;;;;;;;6.43;3.72;;;11.40;76.00;;;;;;4997543;28;20029;-82
2023/02/28 08:12:09;;;;;;;6.35;3.95;;;11.40;76.00;;;;;;4997041;28;20065;-82
2023/02/28 08:14:36;;;;;;;6.50;4.05;;;11.50;75.90;;;;;;4997385;28;20034;-82
2023/02/28 08:17:02;;;;;;;6.03;3.80;;;11.50;75.80;;;;;;4997209;28;20320;-82
2023/02/28 08:19:27;;;;;;;5.63;3.58;;;11.50;75.80;;;;;;4996986;28;20453;-82
2023/02/28 08:21:53;;;;;;;5.50;3.47;;;11.60;75.70;;;;;;5014182;28;20365;-82
2023/02/28 08:24:19;;;;;;;6.10;3.80;;;11.60;75.50;;;;;;5014075;28;20037;-82
2023/02/28 08:26:44;;;;;;;6.40;3.75;;;11.60;75.40;;;;;;4996189;28;20048;-82
2023/02/28 08:29:10;;;;;;;6.45;3.33;;;11.70;75.60;;;;;;5014416;28;20037;-82
2023/02/28 08:31:35;;;;;;;5.90;3.45;;;11.70;75.20;;;;;;5014365;28;20095;-82
2023/02/28 08:34:10;;;;;;;6.15;3.25;;;11.70;75.20;;;;;;4996661;28;20048;-82
2023/02/28 08:36:36;;;;;;;6.07;3.60;;;11.70;75.20;;;;;;5014489;28;20041;-82
2023/02/28 08:39:01;;;;;;;6.32;3.78;;;11.70;75.20;;;;;;4996715;28;20487;-82
2023/02/28 08:41:27;;;;;;;6.60;4.00;;;11.80;75.10;;;;;;4996709;28;20022;-82
2023/02/28 08:43:53;;;;;;;6.93;3.60;;;11.80;75.10;;;;;;5014066;28;20088;-80
2023/02/28 08:46:19;;;;;;;6.40;3.63;;;11.80;75.10;;;;;;4996716;28;20392;-82
2023/02/28 08:48:45;;;;;;;6.32;3.78;;;11.80;75.10;;;;;;5014140;28;20379;-82
2023/02/28 08:51:13;;;;;;;6.30;3.60;;;11.90;75.10;;;;;;4996192;28;20128;-82
2023/02/28 08:53:40;;;;;;;6.78;4.10;;;11.90;75.00;;;;;;4996268;28;20034;-82
2023/02/28 08:56:08;;;;;;;5.75;3.40;;;11.80;74.90;;;;;;4996354;28;20025;-82
2023/02/28 08:58:34;;;;;;;6.57;3.70;;;12.00;75.00;;;;;;5013986;28;20496;-81
2023/02/28 09:01:00;;;;;;;5.10;3.20;;;12.00;75.00;;;;;;4996140;28;20066;-81
2023/02/28 09:03:26;;;;;;;6.20;3.53;;;12.00;74.80;;;;;;4996076;28;20057;-81
2023/02/28 09:05:58;;;;;;;6.28;3.65;;;12.10;74.90;;;;;;4995827;28;20510;-81
2023/02/28 09:08:24;;;;;;;6.40;3.75;;;12.00;74.80;;;;;;4996125;28;20022;-82
2023/02/28 09:10:51;;;;;;;5.75;3.40;;;12.10;75.40;;;;;;4996147;28;20037;-83
2023/02/28 09:13:16;;;;;;;6.18;3.70;;;12.10;74.50;;;;;;5013770;28;20037;-82
2023/02/28 09:15:42;;;;;;;6.28;3.60;;;12.10;74.50;;;;;;4995797;28;20030;-82
2023/02/28 09:18:07;;;;;;;6.03;3.58;;;12.10;74.40;;;;;;4995892;28;20022;-83
2023/02/28 09:20:33;;;;;;;5.15;3.25;;;12.10;74.50;;;;;;4995425;28;20574;-82
2023/02/28 09:22:58;;;;;;;5.53;3.42;;;12.20;74.70;;;;;;4996025;28;20018;-82
2023/02/28 09:25:24;;;;;;;6.32;3.72;;;12.20;74.60;;;;;;5012813;28;20512;-82
2023/02/28 09:27:49;;;;;;;5.80;3.40;;;12.20;74.50;;;;;;4995636;28;20018;-82
2023/02/28 09:30:16;;;;;;;5.85;3.60;;;12.20;74.50;;;;;;4995756;28;20506;-82
2023/02/28 09:32:41;;;;;;;5.65;3.42;;;12.20;74.80;;;;;;5013086;28;20030;-82
2023/02/28 09:35:12;;;;;;;4.88;3.05;;;12.20;74.40;;;;;;4995542;28;20459;-82
2023/02/28 09:37:38;;;;;;;6.47;3.67;;;12.30;74.80;;;;;;5013343;28;20271;-82
2023/02/28 09:40:04;;;;;;;5.85;3.40;;;12.20;74.60;;;;;;4995601;28;20080;-82
2023/02/28 09:42:33;;;;;;;6.13;3.47;;;12.30;74.50;;;;;;4995336;28;20026;-82
2023/02/28 09:45:06;;;;;;;5.75;3.58;;;12.30;74.70;;;;;;5013001;28;20049;-82
2023/02/28 09:47:36;;;;;;;5.70;3.30;;;12.30;75.10;;;;;;4995938;28;20049;-82
2023/02/28 09:50:29;;;;;;;5.25;3.20;;;12.30;74.70;;;;;;4995613;28;20034;-81
2023/02/28 09:52:55;;;;;;;6.05;3.50;;;12.30;74.70;;;;;;4995933;28;20030;-82
2023/02/28 09:55:43;;;;;;;6.20;3.67;;;12.30;74.60;;;;;;4995194;28;20026;-81
2023/02/28 09:58:39;;;;;;;5.25;3.22;;;12.40;74.60;;;;;;4995344;28;20030;-82
2023/02/28 10:01:39;;;;;;;6.47;3.70;;;12.40;74.60;;;;;;4995009;28;20120;-81
2023/02/28 10:04:26;;;;;;;5.82;3.38;;;12.40;74.60;;;;;;5012687;28;20033;-81
2023/02/28 10:06:53;;;;;;;4.80;3.10;;;12.40;74.90;;;;;;4994979;28;20480;-80
2023/02/28 10:09:30;;;;;;;6.20;3.40;;;12.40;75.00;;;;;;4995155;28;20030;-81
2023/02/28 10:12:01;;;;;;;5.50;3.28;;;12.40;75.10;;;;;;5012554;28;20021;-82
2023/02/28 10:14:29;;;;;;;5.82;3.28;;;12.40;74.70;;;;;;5012170;28;20057;-82
2023/02/28 10:16:59;;;;;;;5.07;2.90;;;12.50;74.70;;;;;;4994804;28;20029;-82
2023/02/28 10:19:38;;;;;;;5.00;3.03;;;12.50;74.80;;;;;;4994553;28;20380;-82
2023/02/28 10:22:24;;;;;;;5.90;3.33;;;12.50;74.80;;;;;;5012530;28;20022;-81
2023/02/28 10:24:52;;;;;;;6.30;3.15;;;12.50;74.30;;;;;;4994362;28;20037;-82
2023/02/28 10:27:22;;;;;;;5.05;3.25;;;12.50;74.10;;;;;;5012132;28;20387;-82
2023/02/28 10:29:51;;;;;;;5.75;3.10;;;12.50;74.00;;;;;;5012320;28;20124;-82
2023/02/28 10:32:25;;;;;;;4.45;2.72;;;12.50;73.90;;;;;;4994649;28;20029;-81
2023/02/28 10:34:59;;;;;;;4.68;2.80;;;12.50;74.30;;;;;;4994425;28;20030;-82
2023/02/28 10:37:24;;;;;;;5.32;2.90;;;12.60;74.00;;;;;;5012116;28;20068;-81
2023/02/28 10:39:50;;;;;;;4.70;2.65;;;12.70;74.20;;;;;;4994662;28;20054;-83
2023/02/28 10:42:27;;;;;;;4.95;3.00;;;12.60;74.10;;;;;;5012107;28;20014;-82
2023/02/28 10:45:09;;;;;;;4.88;2.92;;;12.60;74.40;;;;;;4994628;28;20029;-81
2023/02/28 10:47:38;;;;;;;5.50;3.13;;;12.60;74.30;;;;;;4994191;28;20480;-82
2023/02/28 10:50:04;;;;;;;4.95;2.97;;;12.60;74.50;;;;;;4996341;28;20089;-82
2023/02/28 10:52:37;;;;;;;4.55;2.78;;;12.60;74.40;;;;;;4998266;28;20032;-83
2023/02/28 10:55:21;;;;;;;5.18;2.92;;;12.70;74.20;;;;;;4997880;28;20026;-83
2023/02/28 10:57:48;;;;;;;4.93;2.80;;;12.70;73.90;;;;;;4998127;28;20025;-83
2023/02/28 11:00:25;;;;;;;4.40;2.55;;;12.70;74.00;;;;;;4997556;28;20483;-82
2023/02/28 11:02:51;;;;;;;5.25;3.05;;;12.70;73.70;;;;;;4998119;28;20085;-83
2023/02/28 11:05:23;;;;;;;4.82;2.90;;;12.70;73.70;;;;;;4997594;28;20369;-82
2023/02/28 11:07:55;;;;;;;;;;;12.70;73.90;;;;;;4998551;28;20018;-83
2023/02/28 11:10:25;;;;;;;5.20;2.60;;;12.70;73.70;;;;;;4997639;28;20470;-84
2023/02/28 11:12:55;;;;;;;5.60;3.28;;;12.70;73.80;;;;;;4997641;28;20030;-81
2023/02/28 11:15:26;;;;;;;5.00;2.85;;;12.70;74.10;;;;;;4997296;28;20388;-82
2023/02/28 11:17:54;;;;;;;5.15;2.95;;;12.70;73.80;;;;;;4997689;28;20033;-81
2023/02/28 11:20:27;;;;;;;4.65;2.60;;;12.70;74.00;;;;;;4997341;28;20155;-82
2023/02/28 11:22:55;;;;;;;5.30;2.47;;;12.70;74.40;;;;;;4997571;28;20484;-81
2023/02/28 11:25:33;;;;;;;5.10;2.78;;;12.70;74.00;;;;;;4997116;28;20088;-82
2023/02/28 11:28:06;;;;;;;5.43;2.75;;;12.70;74.10;;;;;;5014890;28;20060;-82
2023/02/28 11:30:40;;;;;;;4.00;2.50;;;12.70;74.50;;;;;;4997415;28;20033;-82
2023/02/28 11:33:42;;;;;;;4.43;2.53;;;12.80;74.70;;;;;;4997207;28;20160;-83
2023/02/28 11:36:19;;;;;;;5.28;2.72;;;12.70;74.80;;;;;;5014530;28;20026;-82
2023/02/28 11:38:45;;;;;;;4.93;2.80;;;12.70;75.90;;;;;;5014802;28;20443;-82
2023/02/28 11:41:42;;;;;;;4.35;2.53;;;12.80;75.80;;;;;;4996995;28;20022;-83
2023/02/28 11:44:18;;;;;;;4.93;2.53;;;12.80;75.90;;;;;;4996682;28;20029;-83
2023/02/28 11:46:51;;;;;;;3.67;2.30;;;12.80;75.80;;;;;;5014628;28;20097;-81
2023/02/28 11:49:19;;;;;;;4.75;2.80;;;12.80;75.60;;;;;;4997171;28;20045;-82
2023/02/28 11:51:58;;;;;;;4.22;2.50;;;12.80;75.90;;;;;;4997167;28;20030;-82
2023/02/28 11:54:41;;;;;;;3.97;2.42;;;12.80;75.20;;;;;;5014485;28;20029;-82
2023/02/28 11:57:19;;;;;;;3.97;2.47;;;12.80;74.50;;;;;;4996590;28;20026;-82
2023/02/28 12:00:06;;;;;;;4.82;2.58;;;12.70;74.30;;;;;;4996518;28;20029;-82
2023/02/28 12:03:03;;;;;;;3.80;2.20;;;12.70;75.00;;;;;;4996565;28;20029;-81
2023/02/28 12:05:48;;;;;;;4.25;2.50;;;12.80;74.50;;;;;;4996490;28;20485;-81
2023/02/28 12:08:43;;;;;;;4.05;2.20;;;12.80;74.90;;;;;;5014394;28;20469;-82
2023/02/28 12:11:47;;;;;;;2.85;1.88;;;12.80;74.30;;;;;;5014334;28;20108;-81
2023/02/28 12:14:49;;;;;;;5.13;2.70;;;12.80;74.60;;;;;;4953459;29;20031;-82
2023/02/28 12:17:40;;;;;;;4.50;2.47;;;12.80;74.10;;;;;;4996611;28;20033;-82
2023/02/28 12:20:15;;;;;;;3.78;2.30;;;12.80;73.90;;;;;;4996346;28;20029;-82
2023/02/28 12:22:48;;;;;;;5.15;2.85;;;12.80;74.30;;;;;;4996504;28;20022;-82
2023/02/28 12:25:21;;;;;;;4.47;2.60;;;12.80;74.70;;;;;;4996182;28;20072;-82
2023/02/28 12:27:50;;;;;;;3.72;2.35;;;12.70;74.20;;;;;;4996398;28;20045;-82
2023/02/28 12:30:23;;;;;;;4.90;2.38;;;12.70;74.20;;;;;;4996406;28;20404;-82
2023/02/28 12:32:56;;;;;;;4.90;2.58;;;12.70;74.80;;;;;;4996470;28;20026;-82
2023/02/28 12:35:26;;;;;;;4.53;2.35;;;12.70;74.50;;;;;;4996208;28;20117;-82
2023/02/28 12:38:20;;;;;;;3.50;2.05;;;12.70;74.30;;;;;;4996430;28;20030;-81
2023/02/28 12:41:02;;;;;;;4.18;2.30;;;12.60;74.20;;;;;;5004112;28;20038;-82
2023/02/28 12:43:38;;;;;;;4.45;2.40;;;12.60;74.40;;;;;;4995991;28;20029;-82
2023/02/28 12:46:19;;;;;;;4.28;2.28;;;12.60;74.40;;;;;;5013568;28;20080;-81
2023/02/28 12:48:50;;;;;;;4.53;2.42;;;12.60;74.50;;;;;;5013384;28;20076;-82
2023/02/28 12:51:17;;;;;;;3.65;2.05;;;12.50;74.50;;;;;;5067932;23;20046;-82
2023/02/28 12:53:57;;;;;;;3.50;2.10;;;12.60;74.60;;;;;;4978182;28;20477;-82
2023/02/28 12:56:42;;;;;;;3.45;1.98;;;12.50;74.40;;;;;;4977981;28;20488;-82
2023/02/28 12:59:36;;;;;;;3.67;2.22;;;12.60;74.40;;;;;;4995646;28;20054;-82
2023/02/28 13:02:33;;;;;;;4.07;2.40;;;12.60;74.40;;;;;;4967440;28;20030;-82
2023/02/28 13:05:14;;;;;;;5.15;2.47;;;12.60;74.40;;;;;;4977500;28;20023;-82
2023/02/28 13:08:17;;;;;;;4.00;2.20;;;12.50;74.40;;;;;;4995196;28;20033;-82